createdAt,value
2022-11-12T00:00:12.266Z,102044.97
2022-11-12T00:01:32.901Z,102051.53
2022-11-12T00:02:53.889Z,102044.34
2022-11-12T00:04:14.302Z,102049.84
2022-11-12T00:05:35.566Z,102045.19
2022-11-12T00:06:59.736Z,102047.28
2022-11-12T00:08:21.062Z,102046.41
2022-11-12T00:09:42.016Z,102047.44
2022-11-12T00:11:04.985Z,102039.41
2022-11-12T00:12:26.381Z,102041.13
2022-11-12T00:13:47.177Z,102038.56
2022-11-12T00:15:08.456Z,102044.06
2022-11-12T00:16:28.761Z,102042.34
2022-11-12T00:17:49.338Z,102036.88
2022-11-12T00:19:10.644Z,102041.66
2022-11-12T00:20:31.493Z,102041.66
2022-11-12T00:21:52.041Z,102034.66
2022-11-12T00:23:12.626Z,102038.28
2022-11-12T00:24:36.309Z,102040.16
2022-11-12T00:26:01.391Z,102037.41
2022-11-12T00:27:22.511Z,102037.41
2022-11-12T00:28:43.958Z,102041.03
2022-11-12T00:30:05.288Z,102043.09
2022-11-12T00:31:26.174Z,102043.97
2022-11-12T00:32:47.010Z,102037.81
2022-11-12T00:34:08.218Z,102039.72
2022-11-12T00:35:28.986Z,102041.59
2022-11-12T00:36:49.844Z,102041.41
2022-11-12T00:38:10.993Z,102036.97
2022-11-12T00:39:32.644Z,102046.22
2022-11-12T00:40:53.390Z,102036.28
2022-11-12T00:42:14.495Z,102037.31
2022-11-12T00:43:34.985Z,102035.66
2022-11-12T00:44:56.134Z,102035.44
2022-11-12T00:46:17.138Z,102036.47
2022-11-12T00:47:37.967Z,102037.53
2022-11-12T00:48:58.674Z,102037.53
2022-11-12T00:50:19.426Z,102040.44
2022-11-12T00:51:41.913Z,102036.88
2022-11-12T00:53:02.724Z,102042.34
2022-11-12T00:54:23.431Z,102039.63
2022-11-12T00:55:44.128Z,102040.44
2022-11-12T00:57:04.741Z,102037.91
2022-11-12T00:58:25.696Z,102042.53
2022-11-12T00:59:46.876Z,102034.28
2022-11-12T01:01:13.617Z,102039.97
2022-11-12T01:02:42.296Z,102044.44
2022-11-12T01:04:04.110Z,102044.63
2022-11-12T01:05:25.185Z,102044.63
2022-11-12T01:06:46.016Z,102045.66
2022-11-12T01:08:07.258Z,102050.28
2022-11-12T01:09:28.301Z,102042.22
2022-11-12T01:10:49.322Z,102044.97
2022-11-12T01:12:10.042Z,102044.97
2022-11-12T01:13:30.567Z,102044.31
2022-11-12T01:14:51.220Z,102048.09
2022-11-12T01:16:20.005Z,102047.06
2022-11-12T01:17:40.749Z,102044.31
2022-11-12T01:19:07.077Z,102044.31
2022-11-12T01:20:27.811Z,102036.44
2022-11-12T01:21:48.289Z,102046.41
2022-11-12T01:23:09.078Z,102040.91
2022-11-12T01:24:29.631Z,102037.53
2022-11-12T01:25:50.562Z,102040.25
2022-11-12T01:27:11.165Z,102037.69
2022-11-12T01:28:31.971Z,102039.59
2022-11-12T01:29:52.593Z,102046.09
2022-11-12T01:31:24.951Z,102046.09
2022-11-12T01:32:45.670Z,102039.97
2022-11-12T01:34:08.528Z,102039.97
2022-11-12T01:35:30.189Z,102036.34
2022-11-12T01:36:50.767Z,102042.03
2022-11-12T01:38:11.544Z,102039.28
2022-11-12T01:39:34.554Z,102039.47
2022-11-12T01:40:55.428Z,102040.31
2022-11-12T01:42:16.282Z,102042.41
2022-11-12T01:43:37.152Z,102046.19
2022-11-12T01:44:58.136Z,102038.81
2022-11-12T01:46:27.706Z,102043.44
2022-11-12T01:47:52.251Z,102047.22
2022-11-12T01:49:21.552Z,102046.38
2022-11-12T01:50:42.117Z,102047.22
2022-11-12T01:52:17.744Z,102039.19
2022-11-12T01:53:45.727Z,102042.97
2022-11-12T01:55:12.796Z,102047.81
2022-11-12T01:56:33.876Z,102041.25
2022-11-12T01:58:08.676Z,102037.69
2022-11-12T01:59:36.571Z,102037.88
2022-11-12T02:00:57.803Z,102040.59
2022-11-12T02:02:18.764Z,102040.59
2022-11-12T02:03:39.794Z,102033.41
2022-11-12T02:05:02.224Z,102037.19
2022-11-12T02:06:25.148Z,102033.81
2022-11-12T02:07:47.114Z,102034.63
2022-11-12T02:09:08.096Z,102034.63
2022-11-12T02:10:29.544Z,102032.94
2022-11-12T02:11:50.216Z,102031.06
2022-11-12T02:13:30.221Z,102024.69
2022-11-12T02:14:51.063Z,102028.47
2022-11-12T02:16:11.639Z,102024.91
2022-11-12T02:17:33.191Z,102024.91
2022-11-12T02:18:53.599Z,102020.44
2022-11-12T02:20:15.416Z,102025.94
2022-11-12T02:21:36.716Z,102034.16
2022-11-12T02:22:57.540Z,102019.59
2022-11-12T02:24:18.107Z,102027.84
2022-11-12T02:25:38.845Z,102028.84
2022-11-12T02:27:00.464Z,102028.03
2022-11-12T02:28:22.129Z,102031.78
2022-11-12T02:29:46.634Z,102022.72
2022-11-12T02:31:07.758Z,102030.09
2022-11-12T02:32:28.957Z,102030.28
2022-11-12T02:33:49.813Z,102031.13
2022-11-12T02:35:10.276Z,102034.03
2022-11-12T02:36:31.300Z,102034.03
2022-11-12T02:37:52.073Z,102029.44
2022-11-12T02:39:12.584Z,102033.00
2022-11-12T02:40:33.616Z,102029.59
2022-11-12T02:41:56.604Z,102025.19
2022-11-12T02:43:18.430Z,102023.47
2022-11-12T02:44:39.412Z,102025.19
2022-11-12T02:46:00.634Z,102027.91
2022-11-12T02:47:21.390Z,102023.47
2022-11-12T02:48:42.279Z,102027.91
2022-11-12T02:50:05.836Z,102028.94
2022-11-12T02:51:26.677Z,102028.94
2022-11-12T02:52:47.272Z,102028.94
2022-11-12T02:54:08.502Z,102033.56
2022-11-12T02:55:28.983Z,102034.63
2022-11-12T02:56:49.880Z,102030.16
2022-11-12T02:58:10.588Z,102039.22
2022-11-12T02:59:31.344Z,102028.47
2022-11-12T03:00:52.774Z,102033.94
2022-11-12T03:02:13.806Z,102036.88
2022-11-12T03:03:34.300Z,102036.00
2022-11-12T03:04:55.335Z,102039.81
2022-11-12T03:06:16.572Z,102035.16
2022-11-12T03:07:38.723Z,102033.25
2022-11-12T03:08:59.394Z,102033.44
2022-11-12T03:10:20.193Z,102039.31
2022-11-12T03:11:41.047Z,102033.84
2022-11-12T03:13:01.926Z,102030.91
2022-11-12T03:14:25.438Z,102027.66
2022-11-12T03:15:46.588Z,102037.59
2022-11-12T03:17:07.309Z,102033.84
2022-11-12T03:18:28.238Z,102033.63
2022-11-12T03:19:51.167Z,102032.13
2022-11-12T03:21:13.132Z,102036.75
2022-11-12T03:22:33.677Z,102039.69
2022-11-12T03:23:54.684Z,102039.00
2022-11-12T03:25:15.547Z,102047.03
2022-11-12T03:26:36.596Z,102046.22
2022-11-12T03:28:02.272Z,102047.22
2022-11-12T03:29:22.794Z,102046.41
2022-11-12T03:30:44.488Z,102054.63
2022-11-12T03:32:05.063Z,102042.78
2022-11-12T03:33:26.120Z,102039.34
2022-11-12T03:34:47.262Z,102048.59
2022-11-12T03:36:09.059Z,102043.13
2022-11-12T03:37:29.596Z,102055.81
2022-11-12T03:38:51.119Z,102047.75
2022-11-12T03:40:19.283Z,102051.16
2022-11-12T03:41:40.048Z,102047.75
2022-11-12T03:43:00.672Z,102042.09
2022-11-12T03:44:21.628Z,102047.75
2022-11-12T03:45:42.095Z,102044.16
2022-11-12T03:47:03.357Z,102046.91
2022-11-12T03:48:24.365Z,102047.75
2022-11-12T03:49:45.344Z,102041.41
2022-11-12T03:51:06.244Z,102045.00
2022-11-12T03:52:26.820Z,102051.53
2022-11-12T03:53:47.727Z,102046.06
2022-11-12T03:55:08.761Z,102046.91
2022-11-12T03:56:29.743Z,102045.19
2022-11-12T03:58:03.393Z,102047.94
2022-11-12T03:59:24.459Z,102056.16
2022-11-12T04:00:45.343Z,102054.44
2022-11-12T04:02:08.396Z,102053.59
2022-11-12T04:03:29.257Z,102057.38
2022-11-12T04:05:08.442Z,102045.56
2022-11-12T04:06:47.833Z,102051.88
2022-11-12T04:08:37.541Z,102052.91
2022-11-12T04:09:58.639Z,102051.03
2022-11-12T04:11:21.166Z,102064.94
2022-11-12T04:13:00.439Z,102048.66
2022-11-12T04:14:21.368Z,102052.47
2022-11-12T04:15:42.022Z,102050.75
2022-11-12T04:17:21.084Z,102044.38
2022-11-12T04:19:01.116Z,102051.78
2022-11-12T04:20:40.753Z,102051.78
2022-11-12T04:22:03.627Z,102050.06
2022-11-12T04:23:24.130Z,102049.41
2022-11-12T04:25:03.819Z,102051.09
2022-11-12T04:26:24.531Z,102049.41
2022-11-12T04:27:45.146Z,102042.41
2022-11-12T04:29:24.299Z,102048.72
2022-11-12T04:30:45.231Z,102046.19
2022-11-12T04:32:06.094Z,102048.22
2022-11-12T04:33:27.133Z,102044.66
2022-11-12T04:34:51.145Z,102042.75
2022-11-12T04:36:14.650Z,102046.72
2022-11-12T04:37:47.129Z,102045.88
2022-11-12T04:39:08.039Z,102047.94
2022-11-12T04:40:47.268Z,102046.41
2022-11-12T04:42:30.953Z,102048.09
2022-11-12T04:44:10.212Z,102050.84
2022-11-12T04:45:33.590Z,102043.66
2022-11-12T04:46:54.401Z,102039.91
2022-11-12T04:48:15.220Z,102054.63
2022-11-12T04:49:36.188Z,102041.97
2022-11-12T04:51:25.792Z,102043.84
2022-11-12T04:54:20.507Z,102048.66
2022-11-12T04:55:41.510Z,102048.66
2022-11-12T04:57:02.296Z,102044.22
2022-11-12T04:58:31.333Z,102047.81
2022-11-12T04:59:52.229Z,102048.81
2022-11-12T05:01:13.023Z,102054.31
2022-11-12T05:02:34.089Z,102051.75
2022-11-12T05:03:54.914Z,102051.75
2022-11-12T05:05:15.833Z,102051.94
2022-11-12T05:06:51.932Z,102056.41
2022-11-12T05:08:12.981Z,102055.72
2022-11-12T05:09:33.856Z,102058.63
2022-11-12T05:10:54.737Z,102053.34
2022-11-12T05:12:15.556Z,102049.56
2022-11-12T05:13:35.977Z,102053.16
2022-11-12T05:14:56.734Z,102059.66
2022-11-12T05:16:17.510Z,102052.31
2022-11-12T05:17:44.963Z,102053.34
2022-11-12T05:19:06.286Z,102066.19
2022-11-12T05:20:27.416Z,102066.34
2022-11-12T05:22:06.308Z,102067.41
2022-11-12T05:23:28.279Z,102067.41
2022-11-12T05:24:52.132Z,102063.81
2022-11-12T05:26:13.046Z,102068.44
2022-11-12T05:27:34.539Z,102064.81
2022-11-12T05:28:54.949Z,102064.81
2022-11-12T05:30:15.999Z,102073.03
2022-11-12T05:31:39.522Z,102072.19
2022-11-12T05:33:00.116Z,102083.34
2022-11-12T05:34:23.192Z,102071.69
2022-11-12T05:35:43.764Z,102086.41
2022-11-12T05:37:09.393Z,102080.94
2022-11-12T05:38:30.199Z,102084.72
2022-11-12T05:39:50.706Z,102079.41
2022-11-12T05:41:14.843Z,102078.56
2022-11-12T05:42:38.345Z,102085.25
2022-11-12T05:43:59.231Z,102077.22
2022-11-12T05:45:19.657Z,102077.22
2022-11-12T05:46:40.714Z,102081.00
2022-11-12T05:48:01.241Z,102077.56
2022-11-12T05:49:22.178Z,102078.44
2022-11-12T05:51:06.087Z,102085.78
2022-11-12T05:52:23.489Z,102081.34
2022-11-12T05:53:44.023Z,102078.81
2022-11-12T05:55:04.931Z,102082.56
2022-11-12T05:56:25.767Z,102081.53
2022-11-12T05:57:46.443Z,102081.69
2022-11-12T05:59:12.401Z,102080.84
2022-11-12T06:00:39.094Z,102089.25
2022-11-12T06:01:59.820Z,102086.69
2022-11-12T06:03:20.525Z,102095.75
2022-11-12T06:04:40.939Z,102087.72
2022-11-12T06:06:01.733Z,102089.78
2022-11-12T06:07:25.427Z,102090.97
2022-11-12T06:08:49.492Z,102089.13
2022-11-12T06:10:10.343Z,102099.38
2022-11-12T06:11:31.523Z,102090.47
2022-11-12T06:12:52.361Z,102090.47
2022-11-12T06:14:13.260Z,102094.28
2022-11-12T06:15:39.133Z,102097.00
2022-11-12T06:17:00.358Z,102093.41
2022-11-12T06:18:27.348Z,102096.13
2022-11-12T06:19:48.383Z,102105.38
2022-11-12T06:21:23.262Z,102098.22
2022-11-12T06:22:43.857Z,102103.84
2022-11-12T06:24:04.900Z,102106.75
2022-11-12T06:25:25.962Z,102107.63
2022-11-12T06:26:47.111Z,102101.47
2022-11-12T06:28:10.590Z,102111.56
2022-11-12T06:29:32.230Z,102098.91
2022-11-12T06:30:52.897Z,102096.19
2022-11-12T06:32:14.106Z,102097.19
2022-11-12T06:33:34.822Z,102107.50
2022-11-12T06:34:57.759Z,102106.44
2022-11-12T06:36:24.603Z,102105.59
2022-11-12T06:37:47.536Z,102115.50
2022-11-12T06:39:08.380Z,102102.00
2022-11-12T06:40:29.190Z,102105.78
2022-11-12T06:41:49.943Z,102110.38
2022-11-12T06:43:10.522Z,102104.91
2022-11-12T06:44:31.272Z,102101.31
2022-11-12T06:45:52.070Z,102097.75
2022-11-12T06:47:13.637Z,102095.00
2022-11-12T06:48:34.578Z,102105.09
2022-11-12T06:49:55.365Z,102104.06
2022-11-12T06:51:19.420Z,102105.97
2022-11-12T06:52:40.019Z,102103.22
2022-11-12T06:54:03.853Z,102102.00
2022-11-12T06:55:24.574Z,102103.88
2022-11-12T06:56:48.122Z,102103.69
2022-11-12T06:58:08.985Z,102099.94
2022-11-12T06:59:29.971Z,102104.38
2022-11-12T07:00:50.805Z,102111.38
2022-11-12T07:02:13.544Z,102109.50
2022-11-12T07:03:35.621Z,102102.81
2022-11-12T07:05:04.130Z,102101.59
2022-11-12T07:06:24.975Z,102105.03
2022-11-12T07:07:45.976Z,102107.59
2022-11-12T07:09:09.165Z,102107.41
2022-11-12T07:10:30.011Z,102109.81
2022-11-12T07:11:51.318Z,102106.88
2022-11-12T07:13:12.611Z,102115.75
2022-11-12T07:14:33.301Z,102116.44
2022-11-12T07:15:57.168Z,102114.41
2022-11-12T07:17:18.129Z,102110.41
2022-11-12T07:18:38.783Z,102111.94
2022-11-12T07:20:03.917Z,102112.44
2022-11-12T07:21:25.135Z,102106.63
2022-11-12T07:22:45.806Z,102109.19
2022-11-12T07:24:06.556Z,102105.06
2022-11-12T07:25:27.207Z,102109.13
2022-11-12T07:26:48.225Z,102108.78
2022-11-12T07:28:16.664Z,102111.16
2022-11-12T07:29:47.696Z,102113.53
2022-11-12T07:31:11.982Z,102112.31
2022-11-12T07:32:33.888Z,102114.03
2022-11-12T07:33:56.870Z,102108.19
2022-11-12T07:35:17.522Z,102111.63
2022-11-12T07:36:37.985Z,102112.44
2022-11-12T07:37:59.821Z,102110.41
2022-11-12T07:39:20.494Z,102110.59
2022-11-12T07:40:41.233Z,102115.19
2022-11-12T07:42:01.966Z,102115.19
2022-11-12T07:43:22.856Z,102110.78
2022-11-12T07:44:43.367Z,102102.72
2022-11-12T07:46:12.753Z,102102.72
2022-11-12T07:47:33.502Z,102093.84
2022-11-12T07:48:54.842Z,102103.91
2022-11-12T07:50:15.829Z,102104.97
2022-11-12T07:51:36.789Z,102110.63
2022-11-12T07:53:01.138Z,102103.44
2022-11-12T07:54:21.766Z,102109.09
2022-11-12T07:55:42.676Z,102113.91
2022-11-12T07:57:03.484Z,102111.34
2022-11-12T07:58:25.134Z,102116.84
2022-11-12T07:59:46.636Z,102116.16
2022-11-12T08:01:19.607Z,102120.78
2022-11-12T08:02:40.616Z,102110.16
2022-11-12T08:04:02.946Z,102114.81
2022-11-12T08:05:23.863Z,102114.97
2022-11-12T08:06:44.390Z,102112.44
2022-11-12T08:08:05.353Z,102120.47
2022-11-12T08:09:26.113Z,102115.16
2022-11-12T08:10:46.935Z,102114.31
2022-11-12T08:12:07.882Z,102108.81
2022-11-12T08:13:31.316Z,102106.97
2022-11-12T08:14:52.004Z,102106.97
2022-11-12T08:16:13.181Z,102108.63
2022-11-12T08:17:38.583Z,102108.63
2022-11-12T08:18:59.177Z,102109.50
2022-11-12T08:20:19.938Z,102110.53
2022-11-12T08:21:40.831Z,102109.50
2022-11-12T08:23:02.121Z,102118.75
2022-11-12T08:24:22.646Z,102112.25
2022-11-12T08:25:43.393Z,102113.28
2022-11-12T08:27:03.884Z,102114.13
2022-11-12T08:28:24.891Z,102118.75
2022-11-12T08:29:49.094Z,102116.84
2022-11-12T08:31:18.371Z,102116.84
2022-11-12T08:32:39.200Z,102109.69
2022-11-12T08:33:59.932Z,102118.56
2022-11-12T08:35:20.555Z,102114.97
2022-11-12T08:36:41.383Z,102114.97
2022-11-12T08:38:07.297Z,102111.38
2022-11-12T08:39:28.280Z,102116.69
2022-11-12T08:40:48.841Z,102112.06
2022-11-12T08:42:09.809Z,102111.50
2022-11-12T08:43:30.906Z,102105.69
2022-11-12T08:44:52.217Z,102119.19
2022-11-12T08:46:21.773Z,102119.00
2022-11-12T08:47:42.586Z,102111.13
2022-11-12T08:49:05.979Z,102113.31
2022-11-12T08:50:27.559Z,102114.66
2022-11-12T08:51:48.314Z,102115.16
2022-11-12T08:53:12.113Z,102115.47
2022-11-12T08:54:32.639Z,102103.75
2022-11-12T08:55:54.545Z,102115.03
2022-11-12T08:57:14.926Z,102109.88
2022-11-12T08:58:36.117Z,102118.22
2022-11-12T08:59:59.163Z,102112.91
2022-11-12T09:01:22.211Z,102115.56
2022-11-12T09:02:42.904Z,102116.50
2022-11-12T09:04:03.415Z,102122.97
2022-11-12T09:05:24.009Z,102111.09
2022-11-12T09:06:47.660Z,102109.28
2022-11-12T09:08:13.976Z,102112.81
2022-11-12T09:09:34.829Z,102111.03
2022-11-12T09:10:58.227Z,102117.47
2022-11-12T09:12:19.956Z,102120.16
2022-11-12T09:13:40.885Z,102114.75
2022-11-12T09:15:35.644Z,102109.16
2022-11-12T09:16:54.746Z,102116.06
2022-11-12T09:18:17.479Z,102114.28
2022-11-12T09:19:42.671Z,102119.66
2022-11-12T09:21:25.024Z,102112.19
2022-11-12T09:22:46.031Z,102102.97
2022-11-12T09:24:06.686Z,102112.81
2022-11-12T09:25:27.956Z,102111.00
2022-11-12T09:26:52.382Z,102100.94
2022-11-12T09:28:18.450Z,102101.66
2022-11-12T09:29:39.374Z,102102.41
2022-11-12T09:31:00.054Z,102101.44
2022-11-12T09:32:21.202Z,102094.78
2022-11-12T09:33:42.175Z,102100.16
2022-11-12T09:35:02.778Z,102098.75
2022-11-12T09:36:23.680Z,102109.44
2022-11-12T09:37:53.501Z,102106.13
2022-11-12T09:39:20.070Z,102103.50
2022-11-12T09:40:49.044Z,102099.16
2022-11-12T09:42:15.382Z,102110.25
2022-11-12T09:43:44.806Z,102102.31
2022-11-12T09:45:19.906Z,102104.47
2022-11-12T09:46:53.021Z,102105.19
2022-11-12T09:48:21.675Z,102099.72
2022-11-12T09:49:55.441Z,102097.06
2022-11-12T09:51:27.246Z,102104.56
2022-11-12T09:52:52.680Z,102100.13
2022-11-12T09:54:22.722Z,102102.09
2022-11-12T09:55:47.199Z,102093.22
2022-11-12T09:57:20.457Z,102100.22
2022-11-12T09:58:41.240Z,102094.94
2022-11-12T10:00:03.600Z,102096.84
2022-11-12T10:01:39.187Z,102105.13
2022-11-12T10:03:28.130Z,102103.22
2022-11-12T10:05:00.933Z,102102.78
2022-11-12T10:06:34.706Z,102095.56
2022-11-12T10:08:35.109Z,102102.28
2022-11-12T10:10:14.950Z,102093.53
2022-11-12T10:12:21.007Z,102099.66
2022-11-12T10:13:44.731Z,102095.75
2022-11-12T10:15:48.766Z,102089.94
2022-11-12T10:17:16.472Z,102099.63
2022-11-12T10:19:10.182Z,102102.06
2022-11-12T10:20:42.190Z,102098.38
2022-11-12T10:22:35.188Z,102091.09
2022-11-12T10:23:57.219Z,102087.97
2022-11-12T10:25:19.970Z,102085.31
2022-11-12T10:26:40.865Z,102091.41
2022-11-12T10:28:15.832Z,102097.88
2022-11-12T10:29:52.650Z,102090.78
2022-11-12T10:31:21.053Z,102090.47
2022-11-12T10:32:47.801Z,102086.31
2022-11-12T10:34:15.194Z,102084.69
2022-11-12T10:35:36.849Z,102079.09
2022-11-12T10:37:04.565Z,102074.28
2022-11-12T10:38:28.123Z,102079.56
2022-11-12T10:39:49.105Z,102077.53
2022-11-12T10:41:24.820Z,102080.84
2022-11-12T10:43:17.677Z,102073.91
2022-11-12T10:44:39.916Z,102078.28
2022-11-12T10:46:18.886Z,102074.31
2022-11-12T10:47:43.077Z,102077.22
2022-11-12T10:49:23.111Z,102070.50
2022-11-12T10:50:44.301Z,102065.09
2022-11-12T10:52:04.862Z,102061.34
2022-11-12T10:53:37.750Z,102063.44
2022-11-12T10:55:37.107Z,102067.16
2022-11-12T10:57:18.820Z,102068.38
2022-11-12T10:58:39.445Z,102064.91
2022-11-12T11:00:29.930Z,102075.31
2022-11-12T11:02:00.188Z,102073.72
2022-11-12T11:03:31.244Z,102066.84
2022-11-12T11:04:52.268Z,102061.88
2022-11-12T11:06:15.604Z,102058.66
2022-11-12T11:07:36.651Z,102060.09
2022-11-12T11:09:12.882Z,102063.47
2022-11-12T11:10:36.045Z,102054.91
2022-11-12T11:11:56.930Z,102058.31
2022-11-12T11:13:23.347Z,102063.63
2022-11-12T11:14:44.738Z,102055.28
2022-11-12T11:16:08.203Z,102052.06
2022-11-12T11:17:29.189Z,102059.28
2022-11-12T11:19:02.747Z,102056.50
2022-11-12T11:20:25.901Z,102051.19
2022-11-12T11:21:49.683Z,102060.97
2022-11-12T11:23:37.287Z,102060.47
2022-11-12T11:25:14.776Z,102056.63
2022-11-12T11:27:13.111Z,102056.63
2022-11-12T11:28:47.545Z,102053.59
2022-11-12T11:30:20.803Z,102054.72
2022-11-12T11:31:53.741Z,102047.09
2022-11-12T11:33:14.152Z,102050.09
2022-11-12T11:34:37.958Z,102052.28
2022-11-12T11:36:04.897Z,102046.13
2022-11-12T11:37:31.094Z,102055.53
2022-11-12T11:38:56.690Z,102054.91
2022-11-12T11:40:27.559Z,102057.91
2022-11-12T11:42:11.606Z,102052.84
2022-11-12T11:43:46.594Z,102050.31
2022-11-12T11:45:27.210Z,102049.69
2022-11-12T11:47:06.165Z,102044.41
2022-11-12T11:48:55.008Z,102040.16
2022-11-12T11:50:18.005Z,102036.19
2022-11-12T11:52:10.216Z,102044.75
2022-11-12T11:53:51.782Z,102033.28
2022-11-12T11:55:15.502Z,102032.06
2022-11-12T11:56:45.418Z,102031.47
2022-11-12T11:58:49.310Z,102026.38
2022-11-12T12:00:23.907Z,102028.78
2022-11-12T12:01:50.996Z,102032.88
2022-11-12T12:03:19.765Z,102025.06
2022-11-12T12:05:11.412Z,102025.50
2022-11-12T12:06:45.666Z,102019.59
2022-11-12T12:08:27.344Z,102016.22
2022-11-12T12:10:12.692Z,102016.69
2022-11-12T12:12:05.045Z,102013.31
2022-11-12T12:14:03.411Z,102011.84
2022-11-12T12:15:43.257Z,102022.34
2022-11-12T12:17:19.660Z,102008.72
2022-11-12T12:19:08.011Z,102004.22
2022-11-12T12:20:48.016Z,102012.81
2022-11-12T12:22:26.600Z,101994.69
2022-11-12T12:24:02.105Z,102005.22
2022-11-12T12:25:38.215Z,102001.56
2022-11-12T12:27:21.004Z,102003.75
2022-11-12T12:28:57.343Z,102001.19
2022-11-12T12:30:25.253Z,101994.81
2022-11-12T12:31:55.476Z,101986.72
2022-11-12T12:33:26.361Z,101992.28
2022-11-12T12:34:51.640Z,101987.81
2022-11-12T12:36:27.336Z,101989.97
2022-11-12T12:38:08.975Z,101979.72
2022-11-12T12:39:53.203Z,101983.34
2022-11-12T12:41:32.954Z,101981.44
2022-11-12T12:42:59.753Z,101985.28
2022-11-12T12:44:20.391Z,101988.06
2022-11-12T12:45:43.825Z,101991.91
2022-11-12T12:47:05.393Z,101989.97
2022-11-12T12:50:15.920Z,101984.91
2022-11-12T12:51:37.040Z,101982.13
2022-11-12T12:53:01.855Z,101983.19
2022-11-12T12:54:40.835Z,101980.41
2022-11-12T12:56:07.304Z,101977.66
2022-11-12T12:57:37.284Z,101988.75
2022-11-12T12:59:03.713Z,101984.06
2022-11-12T13:00:34.657Z,101984.28
2022-11-12T13:02:01.111Z,101970.41
2022-11-12T13:03:43.860Z,101981.50
2022-11-12T13:05:05.164Z,101984.28
2022-11-12T13:06:30.082Z,101977.06
2022-11-12T13:07:54.773Z,101981.75
2022-11-12T13:09:15.753Z,101984.50
2022-11-12T13:10:42.084Z,101983.69
2022-11-12T13:12:05.646Z,101990.31
2022-11-12T13:13:33.122Z,101983.06
2022-11-12T13:15:14.056Z,101986.69
2022-11-12T13:16:51.206Z,101982.22
2022-11-12T13:18:17.146Z,101992.50
2022-11-12T13:19:57.432Z,101986.94
2022-11-12T13:21:20.689Z,101987.16
2022-11-12T13:22:41.692Z,101983.53
2022-11-12T13:24:06.841Z,101974.38
2022-11-12T13:25:37.795Z,101986.56
2022-11-12T13:26:59.784Z,101977.38
2022-11-12T13:28:20.475Z,101987.88
2022-11-12T13:29:42.408Z,101984.25
2022-11-12T13:31:04.517Z,101986.81
2022-11-12T13:32:34.071Z,101979.81
2022-11-12T13:33:54.930Z,101988.13
2022-11-12T13:35:23.019Z,101984.47
2022-11-12T13:36:56.980Z,101985.56
2022-11-12T13:38:17.647Z,101981.94
2022-11-12T13:39:39.739Z,101973.88
2022-11-12T13:41:16.400Z,101982.19
2022-11-12T13:42:55.102Z,101980.50
2022-11-12T13:44:17.149Z,101969.88
2022-11-12T13:45:45.089Z,101967.94
2022-11-12T13:47:05.947Z,101971.78
2022-11-12T13:48:39.904Z,101959.25
2022-11-12T13:50:01.802Z,101965.91
2022-11-12T13:51:45.449Z,101973.59
2022-11-12T13:53:16.523Z,101971.91
2022-11-12T13:54:38.525Z,101973.19
2022-11-12T13:56:00.174Z,101965.09
2022-11-12T13:57:26.371Z,101958.72
2022-11-12T13:58:49.520Z,101953.38
2022-11-12T14:00:25.542Z,101953.63
2022-11-12T14:01:48.554Z,101956.63
2022-11-12T14:03:17.573Z,101958.78
2022-11-12T14:04:39.963Z,101964.56
2022-11-12T14:06:06.371Z,101960.09
2022-11-12T14:07:27.291Z,101952.03
2022-11-12T14:09:23.297Z,101955.03
2022-11-12T14:11:09.113Z,101956.34
2022-11-12T14:12:51.484Z,101955.53
2022-11-12T14:14:21.540Z,101953.00
2022-11-12T14:16:07.438Z,101951.53
2022-11-12T14:17:52.577Z,101942.59
2022-11-12T14:19:55.858Z,101946.44
2022-11-12T14:21:19.325Z,101948.38
2022-11-12T14:22:42.811Z,101950.53
2022-11-12T14:24:04.764Z,101953.78
2022-11-12T14:25:27.601Z,101956.78
2022-11-12T14:26:48.150Z,101955.31
2022-11-12T14:28:24.280Z,101956.41
2022-11-12T14:29:45.121Z,101951.31
2022-11-12T14:31:15.084Z,101945.16
2022-11-12T14:32:38.393Z,101943.47
2022-11-12T14:34:21.974Z,101945.63
2022-11-12T14:35:42.741Z,101946.09
2022-11-12T14:37:03.271Z,101949.94
2022-11-12T14:38:29.745Z,101944.63
2022-11-12T14:39:53.661Z,101951.47
2022-11-12T14:41:17.348Z,101956.41
2022-11-12T14:42:37.900Z,101951.94
2022-11-12T14:44:12.546Z,101936.63
2022-11-12T14:45:35.448Z,101945.19
2022-11-12T14:46:58.963Z,101947.56
2022-11-12T14:48:23.098Z,101941.63
2022-11-12T14:49:48.179Z,101929.97
2022-11-12T14:51:14.197Z,101937.41
2022-11-12T14:52:40.522Z,101927.63
2022-11-12T14:54:14.121Z,101929.81
2022-11-12T14:55:37.584Z,101931.13
2022-11-12T14:57:02.908Z,101935.19
2022-11-12T14:58:27.160Z,101934.56
2022-11-12T14:59:47.849Z,101938.41
2022-11-12T15:02:21.649Z,101936.09
2022-11-12T15:03:23.477Z,101925.50
2022-11-12T15:04:54.890Z,101937.00
2022-11-12T15:06:43.941Z,101938.78
2022-11-12T15:08:10.343Z,101938.41
2022-11-12T15:09:38.516Z,101942.69
2022-11-12T15:11:22.367Z,101937.00
2022-11-12T15:12:43.716Z,101932.78
2022-11-12T15:14:04.626Z,101931.50
2022-11-12T15:15:25.414Z,101931.09
2022-11-12T15:16:46.248Z,101941.78
2022-11-12T15:18:22.291Z,101936.94
2022-11-12T15:19:43.215Z,101937.63
2022-11-12T15:21:23.013Z,101943.84
2022-11-12T15:22:51.303Z,101948.09
2022-11-12T15:24:12.317Z,101946.88
2022-11-12T15:25:36.235Z,101939.25
2022-11-12T15:26:59.291Z,101942.69
2022-11-12T15:28:26.479Z,101938.69
2022-11-12T15:29:47.922Z,101934.91
2022-11-12T15:31:21.969Z,101940.03
2022-11-12T15:32:43.388Z,101942.63
2022-11-12T15:34:33.934Z,101941.63
2022-11-12T15:35:58.016Z,101940.56
2022-11-12T15:37:28.234Z,101934.63
2022-11-12T15:38:51.938Z,101930.03
2022-11-12T15:40:21.030Z,101926.22
2022-11-12T15:41:41.928Z,101926.91
2022-11-12T15:43:10.867Z,101932.25
2022-11-12T15:44:36.758Z,101935.88
2022-11-12T15:45:57.599Z,101928.25
2022-11-12T15:47:21.715Z,101930.84
2022-11-12T15:48:42.361Z,101930.66
2022-11-12T15:50:15.623Z,101942.38
2022-11-12T15:51:36.459Z,101940.44
2022-11-12T15:52:57.295Z,101943.66
2022-11-12T15:54:18.446Z,101945.16
2022-11-12T15:55:40.143Z,101938.38
2022-11-12T15:57:01.128Z,101927.16
2022-11-12T15:58:35.961Z,101930.53
2022-11-12T16:00:08.430Z,101935.88
2022-11-12T16:01:29.471Z,101942.91
2022-11-12T16:02:59.401Z,101943.53
2022-11-12T16:04:20.019Z,101937.81
2022-11-12T16:05:41.329Z,101938.47
2022-11-12T16:07:02.413Z,101937.22
2022-11-12T16:08:23.553Z,101934.25
2022-11-12T16:09:44.287Z,101946.81
2022-11-12T16:11:25.289Z,101940.00
2022-11-12T16:12:48.189Z,101942.75
2022-11-12T16:14:13.828Z,101935.75
2022-11-12T16:15:34.647Z,101934.72
2022-11-12T16:16:56.755Z,101939.81
2022-11-12T16:18:17.824Z,101934.09
2022-11-12T16:19:41.483Z,101933.88
2022-11-12T16:21:02.328Z,101929.25
2022-11-12T16:22:22.923Z,101932.41